Flight Track Log - Related Links

Times and Time Zones

All times are in EDT time to prevent confusion due to time zone crossing. See the FIN666 flight status page for this flight to view local times or setup timezone preferences in your user account.

Time Position Orientation Groundspeed Altitude Reporting Facility
EDT Latitude Longitude Course Direction KTS MPH feet Rate Location/Type
Tue 07:45:00 AM 57.0465 15.7738 49° Northeast  Level Estimated
Tue 07:46:00 AM 57.1195 15.9444 52° Northeast  Level Estimated
Tue 07:47:00 AM 57.1922 16.1157 52° Northeast  Level Estimated
Tue 07:48:00 AM 57.2647 16.2877 52° Northeast  Level Estimated
Tue 07:49:00 AM 57.3370 16.4604 52° Northeast  Level Estimated
Tue 07:50:00 AM 57.4090 16.6338 52° Northeast  Level Estimated
Tue 07:51:00 AM 57.4808 16.8078 52° Northeast  Level Estimated
Tue 07:52:00 AM 57.5523 16.9825 53° Northeast  Level Estimated
Tue 07:53:00 AM 57.6236 17.1579 53° Northeast  Level Estimated
Tue 07:54:00 AM 57.6947 17.3340 53° Northeast  Level Estimated
Tue 07:55:00 AM 57.7655 17.5108 53° Northeast  Level Estimated
Tue 07:56:00 AM 57.8361 17.6883 53° Northeast  Level Estimated
Tue 07:57:00 AM 57.9064 17.8664 53° Northeast  Level Estimated
Tue 07:58:00 AM 57.9765 18.0453 53° Northeast  Level Estimated
Tue 07:59:00 AM 58.0463 18.2249 54° Northeast  Level Estimated
Tue 08:00:00 AM 58.1159 18.4052 54° Northeast  Level Estimated
Tue 08:01:00 AM 58.1852 18.5861 54° Northeast  Level Estimated
Tue 08:02:00 AM 58.2542 18.7678 54° Northeast  Level Estimated
Tue 08:03:00 AM 58.3230 18.9502 54° Northeast  Level Estimated
Tue 08:04:00 AM 58.3915 19.1333 54° Northeast  Level Estimated
Tue 08:05:00 AM 58.4598 19.3171 55° Northeast  Level Estimated
Tue 08:06:00 AM 58.5278 19.5017 55° Northeast  Level Estimated
Tue 08:07:00 AM 58.5956 19.6869 55° Northeast  Level Estimated
Tue 08:08:00 AM 58.6630 19.8729 55° Northeast  Level Estimated
Tue 08:09:00 AM 58.7303 20.0595 55° Northeast  Level Estimated
Tue 08:10:00 AM 58.7972 20.2469 55° Northeast  Level Estimated
Tue 08:11:00 AM 58.8638 20.4351 56° Northeast  Level Estimated
Tue 08:12:00 AM 58.9302 20.6239 56° Northeast  Level Estimated
Tue 08:13:00 AM 58.9963 20.8135 56° Northeast  Level Estimated
Tue 08:14:00 AM 59.0622 21.0038 56° Northeast  Level Estimated
Tue 08:15:00 AM 59.1277 21.1948 56° Northeast  Level Estimated
Tue 08:16:00 AM 59.1930 21.3866 56° Northeast  Level Estimated
Tue 08:17:00 AM 59.2580 21.5791 56° Northeast  Level Estimated
Tue 08:18:00 AM 59.3227 21.7723 57° Northeast  Level Estimated
Tue 08:19:00 AM 59.3871 21.9662 57° Northeast  Level Estimated
Tue 08:20:00 AM 59.4512 22.1609 57° Northeast  Level Estimated
Tue 08:21:00 AM 59.5151 22.3564 57° Northeast  Level Estimated
Tue 08:22:00 AM 59.5786 22.5526 57° Northeast  Level Estimated
Tue 08:23:00 AM 59.6419 22.7495 58° Northeast  Level Estimated
Tue 08:24:00 AM 59.7048 22.9471 58° Northeast  Level Estimated
Tue 08:25:00 AM 59.7675 23.1455 58° Northeast  Level Estimated
Tue 08:26:00 AM 59.8298 23.3447 58° Northeast  Level Estimated
Tue 08:27:00 AM 59.8919 23.5446 58° Northeast  Level Estimated
Tue 08:28:00 AM 59.9536 23.7452 58° Northeast  Level Estimated
Tue 08:29:00 AM 60.0151 23.9466 59° Northeast  Level Estimated
Tue 08:30:00 AM 60.0762 24.1488 59° Northeast  Level Estimated
Tue 08:31:00 AM 60.1370 24.3516 59° Northeast  Level Estimated
Tue 08:32:00 AM 60.1976 24.5553 59° Northeast  Level Estimated
Tue 08:33:00 AM 60.2578 24.7596 59° Northeast  Level Estimated
Tue 08:34:00 AM 60.3172 24.9633 59° Northeast  Level Estimated
Tue 08:35:00 AM 60.3172 24.9633 North  Level Estimated
Tue 08:36:00 AM 60.3172 24.9633 North  Level Estimated
Tue 08:37:00 AM 60.3172 24.9633 North  Level Estimated
Tue 08:38:00 AM 60.3172 24.9633 North  Level Estimated
Tue 08:39:00 AM 60.3172 24.9633 North  Level Estimated
Tue 08:40:00 AM 60.3172 24.9633 North  Level Estimated
Tue 08:41:00 AM 60.3172 24.9633 North  Level Estimated
Tue 08:42:00 AM 60.3172 24.9633 North  Level Estimated
Tue 08:43:00 AM 60.3172 24.9633 North  Level Estimated
Tue 08:44:00 AM 60.3172 24.9633 North  Level Estimated
Tue 08:45:00 AM 60.3172 24.9633 North  Level Estimated
Tue 08:46:00 AM 60.3172 24.9633 North  Level Estimated
Tue 08:47:00 AM 60.3172 24.9633 North  Level Estimated
Tue 08:48:00 AM 60.3172 24.9633 North  Level Estimated
Tue 08:49:00 AM 60.3172 24.9633 North  Level Estimated
Tue 08:50:00 AM 60.3172 24.9633 North  Level Estimated

Login

Don't have an account? Register now (free) for customized features, flight alerts, and more!